sensor_id;sensor_type;location;lat;lon;timestamp;P1;durP1;ratioP1;P2;durP2;ratioP2
15177;SDS011;7689;53.612;-2.416;2022-10-19T00:01:13;4.70;;;3.60;;
15177;SDS011;7689;53.612;-2.416;2022-10-19T00:03:42;6.17;;;3.30;;
15177;SDS011;7689;53.612;-2.416;2022-10-19T00:06:19;3.50;;;3.20;;
15177;SDS011;7689;53.612;-2.416;2022-10-19T00:08:59;3.67;;;2.97;;
15177;SDS011;7689;53.612;-2.416;2022-10-19T00:11:26;3.63;;;3.33;;
15177;SDS011;7689;53.612;-2.416;2022-10-19T00:13:53;5.10;;;3.10;;
15177;SDS011;7689;53.612;-2.416;2022-10-19T00:16:20;6.33;;;3.57;;
15177;SDS011;7689;53.612;-2.416;2022-10-19T00:18:47;2.90;;;2.60;;
15177;SDS011;7689;53.612;-2.416;2022-10-19T00:21:14;4.43;;;2.80;;
15177;SDS011;7689;53.612;-2.416;2022-10-19T00:23:42;6.37;;;3.17;;
15177;SDS011;7689;53.612;-2.416;2022-10-19T00:26:08;2.77;;;2.50;;
15177;SDS011;7689;53.612;-2.416;2022-10-19T00:28:34;3.87;;;2.67;;
15177;SDS011;7689;53.612;-2.416;2022-10-19T00:31:03;2.93;;;2.73;;
15177;SDS011;7689;53.612;-2.416;2022-10-19T00:33:29;3.57;;;3.27;;
15177;SDS011;7689;53.612;-2.416;2022-10-19T00:35:55;3.73;;;2.90;;
15177;SDS011;7689;53.612;-2.416;2022-10-19T00:38:21;2.90;;;2.60;;
15177;SDS011;7689;53.612;-2.416;2022-10-19T00:40:46;2.93;;;2.73;;
15177;SDS011;7689;53.612;-2.416;2022-10-19T00:43:17;5.00;;;2.93;;
15177;SDS011;7689;53.612;-2.416;2022-10-19T00:45:45;2.93;;;2.73;;
15177;SDS011;7689;53.612;-2.416;2022-10-19T00:48:16;4.93;;;3.30;;
15177;SDS011;7689;53.612;-2.416;2022-10-19T00:50:46;2.97;;;2.77;;
15177;SDS011;7689;53.612;-2.416;2022-10-19T00:53:15;4.33;;;3.03;;
15177;SDS011;7689;53.612;-2.416;2022-10-19T00:55:41;6.27;;;3.43;;
15177;SDS011;7689;53.612;-2.416;2022-10-19T00:58:07;5.77;;;3.07;;
15177;SDS011;7689;53.612;-2.416;2022-10-19T01:00:34;4.20;;;3.23;;
15177;SDS011;7689;53.612;-2.416;2022-10-19T01:03:00;4.33;;;3.10;;
15177;SDS011;7689;53.612;-2.416;2022-10-19T01:05:26;4.43;;;3.00;;
15177;SDS011;7689;53.612;-2.416;2022-10-19T01:07:54;3.80;;;3.03;;
15177;SDS011;7689;53.612;-2.416;2022-10-19T01:10:22;3.10;;;2.90;;
15177;SDS011;7689;53.612;-2.416;2022-10-19T01:13:14;3.93;;;3.33;;
15177;SDS011;7689;53.612;-2.416;2022-10-19T01:16:07;6.47;;;3.07;;
15177;SDS011;7689;53.612;-2.416;2022-10-19T01:33:24;3.63;;;2.70;;
15177;SDS011;7689;53.612;-2.416;2022-10-19T01:38:53;5.23;;;3.03;;
15177;SDS011;7689;53.612;-2.416;2022-10-19T01:46:40;3.30;;;2.70;;
15177;SDS011;7689;53.612;-2.416;2022-10-19T01:51:48;3.23;;;2.57;;
15177;SDS011;7689;53.612;-2.416;2022-10-19T01:54:19;2.37;;;2.20;;
15177;SDS011;7689;53.612;-2.416;2022-10-19T01:56:46;2.93;;;2.33;;
15177;SDS011;7689;53.612;-2.416;2022-10-19T01:59:14;2.60;;;2.40;;
15177;SDS011;7689;53.612;-2.416;2022-10-19T02:01:43;2.60;;;2.20;;
15177;SDS011;7689;53.612;-2.416;2022-10-19T02:04:12;5.43;;;2.53;;
15177;SDS011;7689;53.612;-2.416;2022-10-19T02:06:41;6.57;;;2.70;;
15177;SDS011;7689;53.612;-2.416;2022-10-19T02:09:08;2.23;;;2.13;;
15177;SDS011;7689;53.612;-2.416;2022-10-19T02:11:34;2.27;;;2.17;;
15177;SDS011;7689;53.612;-2.416;2022-10-19T02:14:05;2.33;;;2.20;;
15177;SDS011;7689;53.612;-2.416;2022-10-19T02:16:40;2.30;;;2.10;;
15177;SDS011;7689;53.612;-2.416;2022-10-19T02:19:13;3.77;;;2.10;;
15177;SDS011;7689;53.612;-2.416;2022-10-19T02:21:39;2.20;;;2.10;;
15177;SDS011;7689;53.612;-2.416;2022-10-19T02:24:05;3.00;;;2.03;;
15177;SDS011;7689;53.612;-2.416;2022-10-19T02:26:30;3.07;;;2.33;;
15177;SDS011;7689;53.612;-2.416;2022-10-19T02:28:57;3.10;;;2.57;;
15177;SDS011;7689;53.612;-2.416;2022-10-19T02:31:23;2.27;;;2.07;;
15177;SDS011;7689;53.612;-2.416;2022-10-19T02:33:50;6.83;;;2.70;;
15177;SDS011;7689;53.612;-2.416;2022-10-19T02:36:16;3.93;;;2.60;;
15177;SDS011;7689;53.612;-2.416;2022-10-19T02:38:42;2.50;;;2.30;;
15177;SDS011;7689;53.612;-2.416;2022-10-19T02:43:54;5.13;;;2.33;;
15177;SDS011;7689;53.612;-2.416;2022-10-19T02:46:29;2.93;;;2.73;;
15177;SDS011;7689;53.612;-2.416;2022-10-19T02:48:56;3.40;;;2.80;;
15177;SDS011;7689;53.612;-2.416;2022-10-19T02:51:30;3.40;;;2.57;;
15177;SDS011;7689;53.612;-2.416;2022-10-19T02:54:00;3.20;;;2.50;;
15177;SDS011;7689;53.612;-2.416;2022-10-19T02:56:27;2.60;;;2.40;;
15177;SDS011;7689;53.612;-2.416;2022-10-19T02:58:53;2.63;;;2.43;;
15177;SDS011;7689;53.612;-2.416;2022-10-19T03:01:18;4.43;;;2.60;;
15177;SDS011;7689;53.612;-2.416;2022-10-19T03:03:44;3.07;;;2.77;;
15177;SDS011;7689;53.612;-2.416;2022-10-19T03:06:10;2.70;;;2.47;;
15177;SDS011;7689;53.612;-2.416;2022-10-19T03:08:36;2.37;;;2.17;;
15177;SDS011;7689;53.612;-2.416;2022-10-19T03:11:02;2.43;;;2.00;;
15177;SDS011;7689;53.612;-2.416;2022-10-19T03:13:28;2.40;;;2.20;;
15177;SDS011;7689;53.612;-2.416;2022-10-19T03:15:53;2.60;;;2.40;;
15177;SDS011;7689;53.612;-2.416;2022-10-19T03:18:19;2.57;;;2.17;;
15177;SDS011;7689;53.612;-2.416;2022-10-19T03:20:45;3.43;;;2.50;;
15177;SDS011;7689;53.612;-2.416;2022-10-19T03:23:10;3.57;;;2.10;;
15177;SDS011;7689;53.612;-2.416;2022-10-19T03:25:36;3.53;;;2.40;;
15177;SDS011;7689;53.612;-2.416;2022-10-19T03:28:02;2.60;;;2.40;;
15177;SDS011;7689;53.612;-2.416;2022-10-19T03:30:28;5.13;;;2.27;;
15177;SDS011;7689;53.612;-2.416;2022-10-19T03:32:53;2.60;;;2.37;;
15177;SDS011;7689;53.612;-2.416;2022-10-19T03:35:19;3.47;;;2.23;;
15177;SDS011;7689;53.612;-2.416;2022-10-19T03:37:44;3.00;;;2.30;;
15177;SDS011;7689;53.612;-2.416;2022-10-19T03:40:10;2.47;;;2.30;;
15177;SDS011;7689;53.612;-2.416;2022-10-19T03:42:36;2.00;;;1.90;;
15177;SDS011;7689;53.612;-2.416;2022-10-19T03:45:02;5.60;;;2.30;;
15177;SDS011;7689;53.612;-2.416;2022-10-19T03:47:28;2.43;;;2.00;;
15177;SDS011;7689;53.612;-2.416;2022-10-19T03:49:53;3.67;;;2.00;;
15177;SDS011;7689;53.612;-2.416;2022-10-19T03:52:19;3.60;;;2.07;;
15177;SDS011;7689;53.612;-2.416;2022-10-19T03:54:48;3.53;;;2.20;;
15177;SDS011;7689;53.612;-2.416;2022-10-19T03:57:14;2.83;;;2.40;;
15177;SDS011;7689;53.612;-2.416;2022-10-19T03:59:40;6.10;;;2.27;;
15177;SDS011;7689;53.612;-2.416;2022-10-19T04:02:05;2.97;;;2.23;;
15177;SDS011;7689;53.612;-2.416;2022-10-19T04:04:31;3.53;;;2.10;;
15177;SDS011;7689;53.612;-2.416;2022-10-19T04:06:57;5.07;;;2.27;;
15177;SDS011;7689;53.612;-2.416;2022-10-19T04:09:23;3.70;;;2.17;;
15177;SDS011;7689;53.612;-2.416;2022-10-19T04:11:48;2.33;;;2.13;;
15177;SDS011;7689;53.612;-2.416;2022-10-19T04:14:15;1.93;;;1.70;;
15177;SDS011;7689;53.612;-2.416;2022-10-19T04:16:42;1.90;;;1.73;;
15177;SDS011;7689;53.612;-2.416;2022-10-19T04:19:08;2.03;;;1.83;;
15177;SDS011;7689;53.612;-2.416;2022-10-19T04:21:38;4.40;;;1.97;;
15177;SDS011;7689;53.612;-2.416;2022-10-19T04:24:15;3.37;;;1.90;;
15177;SDS011;7689;53.612;-2.416;2022-10-19T04:26:46;3.27;;;2.23;;
15177;SDS011;7689;53.612;-2.416;2022-10-19T04:29:13;3.83;;;1.87;;
15177;SDS011;7689;53.612;-2.416;2022-10-19T04:31:40;3.27;;;1.80;;
15177;SDS011;7689;53.612;-2.416;2022-10-19T04:34:06;4.47;;;1.90;;
15177;SDS011;7689;53.612;-2.416;2022-10-19T04:36:32;3.13;;;2.07;;
15177;SDS011;7689;53.612;-2.416;2022-10-19T04:38:59;1.73;;;1.60;;
15177;SDS011;7689;53.612;-2.416;2022-10-19T04:41:25;1.80;;;1.70;;
15177;SDS011;7689;53.612;-2.416;2022-10-19T04:43:55;2.73;;;1.87;;
15177;SDS011;7689;53.612;-2.416;2022-10-19T04:46:23;3.10;;;1.97;;
15177;SDS011;7689;53.612;-2.416;2022-10-19T04:48:50;4.50;;;1.83;;
15177;SDS011;7689;53.612;-2.416;2022-10-19T04:51:16;3.57;;;1.83;;
15177;SDS011;7689;53.612;-2.416;2022-10-19T04:53:44;1.90;;;1.70;;
15177;SDS011;7689;53.612;-2.416;2022-10-19T04:56:17;3.33;;;2.10;;
15177;SDS011;7689;53.612;-2.416;2022-10-19T04:58:47;2.13;;;1.60;;
15177;SDS011;7689;53.612;-2.416;2022-10-19T05:01:17;1.93;;;1.80;;
15177;SDS011;7689;53.612;-2.416;2022-10-19T05:03:44;1.83;;;1.73;;
15177;SDS011;7689;53.612;-2.416;2022-10-19T05:06:11;2.10;;;1.97;;
15177;SDS011;7689;53.612;-2.416;2022-10-19T05:08:38;3.17;;;2.07;;
15177;SDS011;7689;53.612;-2.416;2022-10-19T05:11:05;3.40;;;2.07;;
15177;SDS011;7689;53.612;-2.416;2022-10-19T05:13:35;3.13;;;2.13;;
15177;SDS011;7689;53.612;-2.416;2022-10-19T05:16:02;2.80;;;2.20;;
15177;SDS011;7689;53.612;-2.416;2022-10-19T05:18:29;3.23;;;1.87;;
15177;SDS011;7689;53.612;-2.416;2022-10-19T05:21:05;2.00;;;1.90;;
15177;SDS011;7689;53.612;-2.416;2022-10-19T05:23:33;1.93;;;1.77;;
15177;SDS011;7689;53.612;-2.416;2022-10-19T05:26:03;2.13;;;1.93;;
15177;SDS011;7689;53.612;-2.416;2022-10-19T05:28:33;3.37;;;2.30;;
15177;SDS011;7689;53.612;-2.416;2022-10-19T05:33:36;1.80;;;1.70;;
15177;SDS011;7689;53.612;-2.416;2022-10-19T05:36:10;3.23;;;1.87;;
15177;SDS011;7689;53.612;-2.416;2022-10-19T05:38:36;3.23;;;1.73;;
15177;SDS011;7689;53.612;-2.416;2022-10-19T05:41:02;1.97;;;1.87;;
15177;SDS011;7689;53.612;-2.416;2022-10-19T05:43:27;4.40;;;2.00;;
15177;SDS011;7689;53.612;-2.416;2022-10-19T05:45:53;2.17;;;2.03;;
15177;SDS011;7689;53.612;-2.416;2022-10-19T05:48:19;2.70;;;2.00;;
15177;SDS011;7689;53.612;-2.416;2022-10-19T05:50:51;3.97;;;2.10;;
15177;SDS011;7689;53.612;-2.416;2022-10-19T05:53:18;3.63;;;2.00;;
15177;SDS011;7689;53.612;-2.416;2022-10-19T05:55:44;2.60;;;2.37;;
15177;SDS011;7689;53.612;-2.416;2022-10-19T05:58:10;2.60;;;2.20;;
15177;SDS011;7689;53.612;-2.416;2022-10-19T06:00:35;2.97;;;2.67;;
15177;SDS011;7689;53.612;-2.416;2022-10-19T06:03:01;5.37;;;2.20;;
15177;SDS011;7689;53.612;-2.416;2022-10-19T06:05:27;4.20;;;2.13;;
15177;SDS011;7689;53.612;-2.416;2022-10-19T06:07:52;3.87;;;2.20;;
15177;SDS011;7689;53.612;-2.416;2022-10-19T06:10:18;3.10;;;2.23;;
15177;SDS011;7689;53.612;-2.416;2022-10-19T06:12:45;2.50;;;2.00;;
15177;SDS011;7689;53.612;-2.416;2022-10-19T06:15:11;3.10;;;2.27;;
15177;SDS011;7689;53.612;-2.416;2022-10-19T06:17:36;4.10;;;1.90;;
15177;SDS011;7689;53.612;-2.416;2022-10-19T06:20:02;2.70;;;1.97;;
15177;SDS011;7689;53.612;-2.416;2022-10-19T06:22:28;3.13;;;2.00;;
15177;SDS011;7689;53.612;-2.416;2022-10-19T06:24:54;3.30;;;2.07;;
15177;SDS011;7689;53.612;-2.416;2022-10-19T06:27:20;3.80;;;2.43;;
15177;SDS011;7689;53.612;-2.416;2022-10-19T06:29:46;5.40;;;2.50;;
15177;SDS011;7689;53.612;-2.416;2022-10-19T06:32:12;5.57;;;2.17;;
15177;SDS011;7689;53.612;-2.416;2022-10-19T06:34:38;3.23;;;2.00;;
15177;SDS011;7689;53.612;-2.416;2022-10-19T06:37:03;3.70;;;2.30;;
15177;SDS011;7689;53.612;-2.416;2022-10-19T06:39:29;2.10;;;2.00;;
15177;SDS011;7689;53.612;-2.416;2022-10-19T06:41:55;3.97;;;2.20;;
15177;SDS011;7689;53.612;-2.416;2022-10-19T06:44:20;3.20;;;2.50;;
15177;SDS011;7689;53.612;-2.416;2022-10-19T06:46:46;5.90;;;2.40;;
15177;SDS011;7689;53.612;-2.416;2022-10-19T06:49:12;4.23;;;2.43;;
15177;SDS011;7689;53.612;-2.416;2022-10-19T06:51:38;4.40;;;2.90;;
15177;SDS011;7689;53.612;-2.416;2022-10-19T06:54:04;3.10;;;2.60;;
15177;SDS011;7689;53.612;-2.416;2022-10-19T06:56:31;5.60;;;2.67;;
15177;SDS011;7689;53.612;-2.416;2022-10-19T06:58:56;2.93;;;2.40;;
15177;SDS011;7689;53.612;-2.416;2022-10-19T07:01:23;3.37;;;2.60;;
15177;SDS011;7689;53.612;-2.416;2022-10-19T07:03:49;4.00;;;2.37;;
15177;SDS011;7689;53.612;-2.416;2022-10-19T07:06:16;4.03;;;2.90;;
15177;SDS011;7689;53.612;-2.416;2022-10-19T07:08:42;3.83;;;2.80;;
15177;SDS011;7689;53.612;-2.416;2022-10-19T07:11:13;3.37;;;3.07;;
15177;SDS011;7689;53.612;-2.416;2022-10-19T07:13:41;3.07;;;2.50;;
15177;SDS011;7689;53.612;-2.416;2022-10-19T07:16:08;5.43;;;2.70;;
15177;SDS011;7689;53.612;-2.416;2022-10-19T07:18:36;5.77;;;2.70;;
15177;SDS011;7689;53.612;-2.416;2022-10-19T07:21:04;4.17;;;2.63;;
15177;SDS011;7689;53.612;-2.416;2022-10-19T07:23:32;8.83;;;3.00;;
15177;SDS011;7689;53.612;-2.416;2022-10-19T07:26:02;3.03;;;2.70;;
15177;SDS011;7689;53.612;-2.416;2022-10-19T07:28:33;4.03;;;3.30;;
15177;SDS011;7689;53.612;-2.416;2022-10-19T07:31:03;3.50;;;3.20;;
15177;SDS011;7689;53.612;-2.416;2022-10-19T07:33:30;3.93;;;3.47;;
15177;SDS011;7689;53.612;-2.416;2022-10-19T07:36:00;5.07;;;3.73;;
15177;SDS011;7689;53.612;-2.416;2022-10-19T07:38:27;4.23;;;3.80;;
15177;SDS011;7689;53.612;-2.416;2022-10-19T07:41:01;6.13;;;3.67;;
15177;SDS011;7689;53.612;-2.416;2022-10-19T07:43:35;6.23;;;4.23;;
15177;SDS011;7689;53.612;-2.416;2022-10-19T07:46:01;5.20;;;4.33;;
15177;SDS011;7689;53.612;-2.416;2022-10-19T07:48:32;4.77;;;3.73;;
15177;SDS011;7689;53.612;-2.416;2022-10-19T07:51:02;5.77;;;3.87;;
15177;SDS011;7689;53.612;-2.416;2022-10-19T07:53:30;5.37;;;3.63;;
15177;SDS011;7689;53.612;-2.416;2022-10-19T07:56:01;4.37;;;3.70;;
15177;SDS011;7689;53.612;-2.416;2022-10-19T07:58:31;4.90;;;3.77;;
15177;SDS011;7689;53.612;-2.416;2022-10-19T08:00:59;4.10;;;3.77;;
15177;SDS011;7689;53.612;-2.416;2022-10-19T08:03:29;3.73;;;3.43;;
15177;SDS011;7689;53.612;-2.416;2022-10-19T08:05:58;3.93;;;3.60;;
15177;SDS011;7689;53.612;-2.416;2022-10-19T08:08:25;4.73;;;3.20;;
15177;SDS011;7689;53.612;-2.416;2022-10-19T08:10:51;4.57;;;3.10;;
15177;SDS011;7689;53.612;-2.416;2022-10-19T08:13:16;6.50;;;2.77;;
15177;SDS011;7689;53.612;-2.416;2022-10-19T08:15:42;5.30;;;3.43;;
15177;SDS011;7689;53.612;-2.416;2022-10-19T08:18:08;3.13;;;2.87;;
15177;SDS011;7689;53.612;-2.416;2022-10-19T08:20:33;10.67;;;2.83;;
15177;SDS011;7689;53.612;-2.416;2022-10-19T08:22:59;6.97;;;3.10;;
15177;SDS011;7689;53.612;-2.416;2022-10-19T08:25:26;2.80;;;2.60;;
15177;SDS011;7689;53.612;-2.416;2022-10-19T08:27:51;8.83;;;2.70;;
15177;SDS011;7689;53.612;-2.416;2022-10-19T08:30:17;4.77;;;2.30;;
15177;SDS011;7689;53.612;-2.416;2022-10-19T08:32:43;6.13;;;3.37;;
15177;SDS011;7689;53.612;-2.416;2022-10-19T08:35:08;2.10;;;2.00;;
15177;SDS011;7689;53.612;-2.416;2022-10-19T08:37:34;4.53;;;2.10;;
15177;SDS011;7689;53.612;-2.416;2022-10-19T08:40:00;2.93;;;2.27;;
15177;SDS011;7689;53.612;-2.416;2022-10-19T08:50:57;4.00;;;1.90;;
15177;SDS011;7689;53.612;-2.416;2022-10-19T09:04:14;3.93;;;2.13;;
15177;SDS011;7689;53.612;-2.416;2022-10-19T09:12:41;4.30;;;2.00;;
15177;SDS011;7689;53.612;-2.416;2022-10-19T09:15:19;1.93;;;1.60;;
15177;SDS011;7689;53.612;-2.416;2022-10-19T09:17:50;1.70;;;1.57;;
15177;SDS011;7689;53.612;-2.416;2022-10-19T09:20:20;2.47;;;1.53;;
15177;SDS011;7689;53.612;-2.416;2022-10-19T09:22:52;4.43;;;1.80;;
15177;SDS011;7689;53.612;-2.416;2022-10-19T09:25:28;2.03;;;1.53;;
15177;SDS011;7689;53.612;-2.416;2022-10-19T09:28:05;4.57;;;1.77;;
15177;SDS011;7689;53.612;-2.416;2022-10-19T09:30:54;3.53;;;1.70;;
15177;SDS011;7689;53.612;-2.416;2022-10-19T09:33:26;1.57;;;1.47;;
15177;SDS011;7689;53.612;-2.416;2022-10-19T09:35:56;5.97;;;2.10;;
15177;SDS011;7689;53.612;-2.416;2022-10-19T09:38:24;4.27;;;1.97;;
15177;SDS011;7689;53.612;-2.416;2022-10-19T09:40:51;2.73;;;1.70;;
15177;SDS011;7689;53.612;-2.416;2022-10-19T09:43:18;3.53;;;1.50;;
15177;SDS011;7689;53.612;-2.416;2022-10-19T09:48:31;2.93;;;1.57;;
15177;SDS011;7689;53.612;-2.416;2022-10-19T09:51:02;6.23;;;2.10;;
15177;SDS011;7689;53.612;-2.416;2022-10-19T09:53:36;2.30;;;1.50;;
15177;SDS011;7689;53.612;-2.416;2022-10-19T09:56:03;4.30;;;1.70;;
15177;SDS011;7689;53.612;-2.416;2022-10-19T09:58:31;3.90;;;1.67;;
15177;SDS011;7689;53.612;-2.416;2022-10-19T10:00:57;4.03;;;1.83;;
15177;SDS011;7689;53.612;-2.416;2022-10-19T10:06:18;5.47;;;1.97;;
15177;SDS011;7689;53.612;-2.416;2022-10-19T10:08:46;4.57;;;1.80;;
15177;SDS011;7689;53.612;-2.416;2022-10-19T10:11:15;3.43;;;1.60;;
15177;SDS011;7689;53.612;-2.416;2022-10-19T10:13:49;5.60;;;1.80;;
15177;SDS011;7689;53.612;-2.416;2022-10-19T10:16:19;4.50;;;1.83;;
15177;SDS011;7689;53.612;-2.416;2022-10-19T10:18:56;1.90;;;1.67;;
15177;SDS011;7689;53.612;-2.416;2022-10-19T10:21:29;4.17;;;1.80;;
15177;SDS011;7689;53.612;-2.416;2022-10-19T10:26:59;4.87;;;1.90;;
15177;SDS011;7689;53.612;-2.416;2022-10-19T10:29:31;4.17;;;1.80;;
15177;SDS011;7689;53.612;-2.416;2022-10-19T10:32:05;1.80;;;1.37;;
15177;SDS011;7689;53.612;-2.416;2022-10-19T10:34:44;3.90;;;1.83;;
15177;SDS011;7689;53.612;-2.416;2022-10-19T10:37:20;2.50;;;1.80;;
15177;SDS011;7689;53.612;-2.416;2022-10-19T10:40:01;3.23;;;1.93;;
15177;SDS011;7689;53.612;-2.416;2022-10-19T10:42:38;3.67;;;2.00;;
15177;SDS011;7689;53.612;-2.416;2022-10-19T10:45:15;5.30;;;1.87;;
15177;SDS011;7689;53.612;-2.416;2022-10-19T10:47:48;2.93;;;2.20;;
15177;SDS011;7689;53.612;-2.416;2022-10-19T10:50:19;2.13;;;1.90;;
15177;SDS011;7689;53.612;-2.416;2022-10-19T10:53:00;2.92;;;2.08;;
15177;SDS011;7689;53.612;-2.416;2022-10-19T10:55:31;1.75;;;1.65;;
15177;SDS011;7689;53.612;-2.416;2022-10-19T10:58:03;1.50;;;1.40;;
15177;SDS011;7689;53.612;-2.416;2022-10-19T11:00:31;3.93;;;1.73;;
15177;SDS011;7689;53.612;-2.416;2022-10-19T11:03:07;3.60;;;1.88;;
15177;SDS011;7689;53.612;-2.416;2022-10-19T11:05:36;5.95;;;2.22;;
15177;SDS011;7689;53.612;-2.416;2022-10-19T11:16:24;3.40;;;1.80;;
15177;SDS011;7689;53.612;-2.416;2022-10-19T11:21:55;3.13;;;2.13;;
15177;SDS011;7689;53.612;-2.416;2022-10-19T11:30:55;2.07;;;1.87;;
15177;SDS011;7689;53.612;-2.416;2022-10-19T11:38:54;3.33;;;2.03;;
15177;SDS011;7689;53.612;-2.416;2022-10-19T11:41:46;4.03;;;2.00;;
15177;SDS011;7689;53.612;-2.416;2022-10-19T11:44:56;3.87;;;2.30;;
15177;SDS011;7689;53.612;-2.416;2022-10-19T11:53:06;4.87;;;2.47;;
15177;SDS011;7689;53.612;-2.416;2022-10-19T11:58:17;5.10;;;2.27;;
15177;SDS011;7689;53.612;-2.416;2022-10-19T12:01:27;3.85;;;2.50;;
15177;SDS011;7689;53.612;-2.416;2022-10-19T12:09:47;6.17;;;2.90;;
15177;SDS011;7689;53.612;-2.416;2022-10-19T12:12:25;3.58;;;2.70;;
15177;SDS011;7689;53.612;-2.416;2022-10-19T12:15:11;3.40;;;2.95;;
15177;SDS011;7689;53.612;-2.416;2022-10-19T12:17:48;4.35;;;2.60;;
15177;SDS011;7689;53.612;-2.416;2022-10-19T12:20:21;1.97;;;1.87;;
15177;SDS011;7689;53.612;-2.416;2022-10-19T12:22:58;7.22;;;1.83;;
15177;SDS011;7689;53.612;-2.416;2022-10-19T12:25:37;4.40;;;2.35;;
15177;SDS011;7689;53.612;-2.416;2022-10-19T12:28:08;3.95;;;2.20;;
15177;SDS011;7689;53.612;-2.416;2022-10-19T12:30:40;4.32;;;2.22;;
15177;SDS011;7689;53.612;-2.416;2022-10-19T12:33:08;4.22;;;1.90;;
15177;SDS011;7689;53.612;-2.416;2022-10-19T12:35:51;2.70;;;1.85;;
15177;SDS011;7689;53.612;-2.416;2022-10-19T12:38:37;2.17;;;1.85;;
15177;SDS011;7689;53.612;-2.416;2022-10-19T12:46:38;3.75;;;1.42;;
15177;SDS011;7689;53.612;-2.416;2022-10-19T12:51:51;3.33;;;1.30;;
15177;SDS011;7689;53.612;-2.416;2022-10-19T12:54:21;4.78;;;1.35;;
15177;SDS011;7689;53.612;-2.416;2022-10-19T12:56:52;3.83;;;1.60;;
15177;SDS011;7689;53.612;-2.416;2022-10-19T12:59:23;4.30;;;1.73;;
15177;SDS011;7689;53.612;-2.416;2022-10-19T13:01:51;3.03;;;1.60;;
15177;SDS011;7689;53.612;-2.416;2022-10-19T13:07:01;4.03;;;1.63;;
15177;SDS011;7689;53.612;-2.416;2022-10-19T13:09:41;1.77;;;1.42;;
15177;SDS011;7689;53.612;-2.416;2022-10-19T13:22:40;4.03;;;2.00;;
15177;SDS011;7689;53.612;-2.416;2022-10-19T13:36:10;3.05;;;1.92;;
15177;SDS011;7689;53.612;-2.416;2022-10-19T13:38:36;1.35;;;1.23;;
15177;SDS011;7689;53.612;-2.416;2022-10-19T13:41:22;5.13;;;2.10;;
15177;SDS011;7689;53.612;-2.416;2022-10-19T13:47:34;4.18;;;1.60;;
15177;SDS011;7689;53.612;-2.416;2022-10-19T13:49:35;5.68;;;1.70;;
15177;SDS011;7689;53.612;-2.416;2022-10-19T13:55:03;3.13;;;1.63;;
15177;SDS011;7689;53.612;-2.416;2022-10-19T13:57:50;4.35;;;1.95;;
15177;SDS011;7689;53.612;-2.416;2022-10-19T14:00:55;1.98;;;1.48;;
15177;SDS011;7689;53.612;-2.416;2022-10-19T14:06:40;5.38;;;1.60;;
15177;SDS011;7689;53.612;-2.416;2022-10-19T14:11:44;3.38;;;1.73;;
15177;SDS011;7689;53.612;-2.416;2022-10-19T14:14:13;4.18;;;1.88;;
15177;SDS011;7689;53.612;-2.416;2022-10-19T14:16:49;4.68;;;1.75;;
15177;SDS011;7689;53.612;-2.416;2022-10-19T14:19:27;3.58;;;1.58;;
15177;SDS011;7689;53.612;-2.416;2022-10-19T14:22:16;3.30;;;1.35;;
15177;SDS011;7689;53.612;-2.416;2022-10-19T14:25:27;8.60;;;1.80;;
15177;SDS011;7689;53.612;-2.416;2022-10-19T14:27:59;2.30;;;1.35;;
15177;SDS011;7689;53.612;-2.416;2022-10-19T14:30:29;10.25;;;1.83;;
15177;SDS011;7689;53.612;-2.416;2022-10-19T14:32:57;8.85;;;1.90;;
15177;SDS011;7689;53.612;-2.416;2022-10-19T14:35:31;2.50;;;1.40;;
15177;SDS011;7689;53.612;-2.416;2022-10-19T14:37:59;4.32;;;2.10;;
15177;SDS011;7689;53.612;-2.416;2022-10-19T14:40:32;3.78;;;1.73;;
15177;SDS011;7689;53.612;-2.416;2022-10-19T14:43:18;8.52;;;1.80;;
15177;SDS011;7689;53.612;-2.416;2022-10-19T14:46:23;2.10;;;1.65;;
15177;SDS011;7689;53.612;-2.416;2022-10-19T14:48:41;3.10;;;1.35;;
15177;SDS011;7689;53.612;-2.416;2022-10-19T14:53:53;12.93;;;2.22;;
15177;SDS011;7689;53.612;-2.416;2022-10-19T15:01:39;6.57;;;2.03;;
15177;SDS011;7689;53.612;-2.416;2022-10-19T15:04:16;6.10;;;1.90;;
15177;SDS011;7689;53.612;-2.416;2022-10-19T15:06:46;5.05;;;2.15;;
15177;SDS011;7689;53.612;-2.416;2022-10-19T15:09:17;4.43;;;1.83;;
15177;SDS011;7689;53.612;-2.416;2022-10-19T15:11:49;4.22;;;1.63;;
15177;SDS011;7689;53.612;-2.416;2022-10-19T15:14:21;6.32;;;2.00;;
15177;SDS011;7689;53.612;-2.416;2022-10-19T15:17:05;7.43;;;2.19;;
15177;SDS011;7689;53.612;-2.416;2022-10-19T15:19:47;4.38;;;2.00;;
15177;SDS011;7689;53.612;-2.416;2022-10-19T15:24:39;5.47;;;1.88;;
15177;SDS011;7689;53.612;-2.416;2022-10-19T15:27:20;6.37;;;2.23;;
15177;SDS011;7689;53.612;-2.416;2022-10-19T15:32:22;7.15;;;1.67;;
15177;SDS011;7689;53.612;-2.416;2022-10-19T15:34:50;4.65;;;2.55;;
15177;SDS011;7689;53.612;-2.416;2022-10-19T15:37:20;3.53;;;2.10;;
15177;SDS011;7689;53.612;-2.416;2022-10-19T15:39:47;2.70;;;1.63;;
15177;SDS011;7689;53.612;-2.416;2022-10-19T15:42:22;3.83;;;1.90;;
15177;SDS011;7689;53.612;-2.416;2022-10-19T15:45:01;5.95;;;1.90;;
15177;SDS011;7689;53.612;-2.416;2022-10-19T15:47:27;5.60;;;2.20;;
15177;SDS011;7689;53.612;-2.416;2022-10-19T15:49:55;9.27;;;2.72;;
15177;SDS011;7689;53.612;-2.416;2022-10-19T15:52:26;5.38;;;2.20;;
15177;SDS011;7689;53.612;-2.416;2022-10-19T15:54:54;6.23;;;2.40;;
15177;SDS011;7689;53.612;-2.416;2022-10-19T15:57:26;7.67;;;2.57;;
15177;SDS011;7689;53.612;-2.416;2022-10-19T15:59:53;8.45;;;2.28;;
15177;SDS011;7689;53.612;-2.416;2022-10-19T16:02:20;6.10;;;2.10;;
15177;SDS011;7689;53.612;-2.416;2022-10-19T16:04:46;8.00;;;2.55;;
15177;SDS011;7689;53.612;-2.416;2022-10-19T16:07:14;6.72;;;2.38;;
15177;SDS011;7689;53.612;-2.416;2022-10-19T16:09:43;5.73;;;2.10;;
15177;SDS011;7689;53.612;-2.416;2022-10-19T16:12:09;6.60;;;2.17;;
15177;SDS011;7689;53.612;-2.416;2022-10-19T16:14:35;6.40;;;2.23;;
15177;SDS011;7689;53.612;-2.416;2022-10-19T16:17:01;7.43;;;3.30;;
15177;SDS011;7689;53.612;-2.416;2022-10-19T16:19:27;5.13;;;2.10;;
15177;SDS011;7689;53.612;-2.416;2022-10-19T16:21:52;8.17;;;2.67;;
15177;SDS011;7689;53.612;-2.416;2022-10-19T16:24:18;10.30;;;2.63;;
15177;SDS011;7689;53.612;-2.416;2022-10-19T16:26:44;5.57;;;1.97;;
15177;SDS011;7689;53.612;-2.416;2022-10-19T16:29:10;5.03;;;2.23;;
15177;SDS011;7689;53.612;-2.416;2022-10-19T16:31:36;4.17;;;2.17;;
15177;SDS011;7689;53.612;-2.416;2022-10-19T16:34:02;10.03;;;2.77;;
15177;SDS011;7689;53.612;-2.416;2022-10-19T16:36:27;5.37;;;2.00;;
15177;SDS011;7689;53.612;-2.416;2022-10-19T16:38:53;6.57;;;2.03;;
15177;SDS011;7689;53.612;-2.416;2022-10-19T16:41:19;7.10;;;2.17;;
15177;SDS011;7689;53.612;-2.416;2022-10-19T16:43:44;6.30;;;2.17;;
15177;SDS011;7689;53.612;-2.416;2022-10-19T16:46:12;8.50;;;2.77;;
15177;SDS011;7689;53.612;-2.416;2022-10-19T16:48:38;4.13;;;2.10;;
15177;SDS011;7689;53.612;-2.416;2022-10-19T16:53:29;8.23;;;2.60;;
15177;SDS011;7689;53.612;-2.416;2022-10-19T16:56:02;3.73;;;2.47;;
15177;SDS011;7689;53.612;-2.416;2022-10-19T16:58:35;10.07;;;2.37;;
15177;SDS011;7689;53.612;-2.416;2022-10-19T17:01:14;5.87;;;2.53;;
15177;SDS011;7689;53.612;-2.416;2022-10-19T17:03:44;7.00;;;2.67;;
15177;SDS011;7689;53.612;-2.416;2022-10-19T17:06:11;7.27;;;2.40;;
15177;SDS011;7689;53.612;-2.416;2022-10-19T17:08:38;11.07;;;3.00;;
15177;SDS011;7689;53.612;-2.416;2022-10-19T17:11:08;6.33;;;2.50;;
15177;SDS011;7689;53.612;-2.416;2022-10-19T17:13:36;4.37;;;2.37;;
15177;SDS011;7689;53.612;-2.416;2022-10-19T17:16:02;4.27;;;2.50;;
15177;SDS011;7689;53.612;-2.416;2022-10-19T17:18:28;3.97;;;2.33;;
15177;SDS011;7689;53.612;-2.416;2022-10-19T17:20:54;7.83;;;3.60;;
15177;SDS011;7689;53.612;-2.416;2022-10-19T17:23:26;8.57;;;2.50;;
15177;SDS011;7689;53.612;-2.416;2022-10-19T17:25:52;6.07;;;2.63;;
15177;SDS011;7689;53.612;-2.416;2022-10-19T17:28:17;8.73;;;4.60;;
15177;SDS011;7689;53.612;-2.416;2022-10-19T17:30:43;5.87;;;2.93;;
15177;SDS011;7689;53.612;-2.416;2022-10-19T17:33:08;7.93;;;3.83;;
15177;SDS011;7689;53.612;-2.416;2022-10-19T17:35:34;5.27;;;3.10;;
15177;SDS011;7689;53.612;-2.416;2022-10-19T17:38:00;11.80;;;3.60;;
15177;SDS011;7689;53.612;-2.416;2022-10-19T17:40:26;4.53;;;3.13;;
15177;SDS011;7689;53.612;-2.416;2022-10-19T17:42:51;7.47;;;3.43;;
15177;SDS011;7689;53.612;-2.416;2022-10-19T17:45:17;9.87;;;2.60;;